OIYY

Details ICAO OIYY (AZD)
Name YAZD SHAHID SADOOGHI
Region Iran
Timezone Asia/Tehran (UTC+3.5)
Plans Departing 17
Arriving 12
Stats Elevation 4,054 ft / 1,236 m (AMSL)
Location 31.904908° 54.276500°
Runways 1
Magnetic Variation 3.532° E
Sunrise 2017-12-18 03:18:50 UTC / 2017-12-18 06:48:50 Local
Sunset 2017-12-18 13:22:44 UTC / 2017-12-18 16:52:44 Local
Advertisement - Login to hide

Runways

ID Width Length Bearing (true) Bearing (mag) Surface Threshold Offset Overrun Length
13 148 ft / 45 m 13,453 ft / 4,100 m 133.16° 129.63° Asphalt 0 ft / 0 m 659 ft / 201 m
31 148 ft / 45 m 13,453 ft / 4,100 m 313.18° 309.65° Asphalt 0 ft / 0 m 659 ft / 201 m

Map

Weather


0- 5 10 15 20 25 30 35+ Temperature / ° C

Clouds and Precipitation
Forecast for 2017-12-18 12:00 UTC. Updated 2 hours ago

Ground ~20,000 ft ~40,000 ft Winds

METAR

OIYY 180830Z 16004KT 9999 FEW035 16/M02 Q1025

TAF

Not found

Frequencies

Recorded 126.25 MHz ATIS
Tower 121.90 MHz TWR
Tower 122.70 MHz TWR
Warning: Do not use this data for real-world aviation or navigation. No guarantee of current accuracy is given.